createdAt,value
2022-08-04T00:04:09.859Z,101423.53
2022-08-04T00:09:35.909Z,101417.59
2022-08-04T00:14:36.303Z,101413.91
2022-08-04T00:19:38.053Z,101405.28
2022-08-04T00:24:36.298Z,101409.03
2022-08-04T00:29:34.881Z,101405.13
2022-08-04T00:34:32.028Z,101410.59
2022-08-04T00:39:30.151Z,101402.81
2022-08-04T00:44:35.673Z,101406.03
2022-08-04T00:49:57.336Z,101397.59
2022-08-04T00:55:05.408Z,101401.63
2022-08-04T01:00:11.840Z,101390.09
2022-08-04T01:05:27.300Z,101391.47
2022-08-04T01:10:48.470Z,101388.44
2022-08-04T01:16:00.549Z,101387.94
2022-08-04T01:21:19.237Z,101375.25
2022-08-04T01:26:53.713Z,101378.78
2022-08-04T01:32:02.483Z,101380.50
2022-08-04T01:37:08.251Z,101373.72
2022-08-04T01:42:06.078Z,101373.22
2022-08-04T01:47:07.868Z,101364.78
2022-08-04T01:52:05.905Z,101357.31
2022-08-04T01:57:37.674Z,101354.25
2022-08-04T02:02:25.159Z,101352.06
2022-08-04T02:07:36.778Z,101347.16
2022-08-04T02:13:03.913Z,101346.31
2022-08-04T02:18:12.655Z,101353.22
2022-08-04T02:23:14.384Z,101346.63
2022-08-04T02:28:26.395Z,101350.50
2022-08-04T02:33:42.807Z,101334.59
2022-08-04T02:38:39.852Z,101331.56
2022-08-04T02:43:51.811Z,101338.31
2022-08-04T02:48:50.766Z,101331.53
2022-08-04T02:53:53.111Z,101322.91
2022-08-04T02:58:53.044Z,101326.81
2022-08-04T03:04:24.923Z,101323.59
2022-08-04T03:09:51.651Z,101317.84
2022-08-04T03:15:09.689Z,101324.75
2022-08-04T03:20:44.384Z,101329.63
2022-08-04T03:26:25.145Z,101327.44
2022-08-04T03:31:30.429Z,101325.06
2022-08-04T03:36:44.448Z,101323.56
2022-08-04T03:42:03.266Z,101323.88
2022-08-04T03:47:18.898Z,101318.78
2022-08-04T03:52:55.771Z,101323.38
2022-08-04T03:58:28.489Z,101315.72
2022-08-04T04:03:45.614Z,101321.13
2022-08-04T04:08:45.581Z,101318.59
2022-08-04T04:14:35.646Z,101313.03
2022-08-04T04:19:37.896Z,101312.03
2022-08-04T04:24:34.595Z,101310.00
2022-08-04T04:30:04.384Z,101316.75
2022-08-04T04:35:27.269Z,101316.28
2022-08-04T04:41:02.937Z,101307.66
2022-08-04T04:46:24.963Z,101307.81
2022-08-04T04:51:34.095Z,101298.00
2022-08-04T04:56:38.724Z,101301.91
2022-08-04T05:01:53.166Z,101302.94
2022-08-04T05:07:07.614Z,101296.47
2022-08-04T05:14:37.626Z,101298.03
2022-08-04T05:19:08.383Z,101280.91
2022-08-04T05:30:12.101Z,101283.28
2022-08-04T05:35:12.853Z,101287.97
2022-08-04T05:40:11.171Z,101297.44
2022-08-04T05:45:09.478Z,101290.63
2022-08-04T05:50:07.199Z,101286.69
2022-08-04T05:55:04.972Z,101280.72
2022-08-04T06:00:14.828Z,101271.38
2022-08-04T06:05:25.420Z,101265.19
2022-08-04T06:10:29.250Z,101270.69
2022-08-04T06:20:39.637Z,101268.72
2022-08-04T06:25:50.465Z,101259.84
2022-08-04T06:30:49.829Z,101257.66
2022-08-04T06:35:46.654Z,101255.97
2022-08-04T06:40:43.685Z,101252.28
2022-08-04T06:45:41.887Z,101249.22
2022-08-04T06:51:24.662Z,101252.53
2022-08-04T06:55:57.518Z,101240.78
2022-08-04T07:00:54.977Z,101240.41
2022-08-04T07:05:52.270Z,101234.75
2022-08-04T07:10:51.800Z,101237.94
2022-08-04T07:15:49.054Z,101238.78
2022-08-04T07:21:39.201Z,101214.81
2022-08-04T07:27:07.059Z,101211.16
2022-08-04T07:32:16.339Z,101219.34
2022-08-04T07:37:44.659Z,101227.28
2022-08-04T07:43:36.486Z,101213.41
2022-08-04T07:49:54.369Z,101202.50
2022-08-04T07:54:45.561Z,101217.94
2022-08-04T07:59:50.269Z,101191.53
2022-08-04T08:05:04.172Z,101192.88
2022-08-04T08:22:21.101Z,101211.47
2022-08-04T08:34:10.975Z,101193.09
2022-08-04T08:45:54.922Z,101181.63
2022-08-04T08:51:31.997Z,101184.16
2022-08-04T08:56:45.951Z,101164.78
2022-08-04T09:02:25.340Z,101166.00
2022-08-04T09:07:22.048Z,101158.59
2022-08-04T09:12:25.875Z,101152.28
2022-08-04T09:17:29.501Z,101157.69
2022-08-04T09:22:39.989Z,101158.69
2022-08-04T09:27:48.260Z,101154.44
2022-08-04T09:33:44.621Z,101148.25
2022-08-04T09:39:11.178Z,101140.88
2022-08-04T09:44:50.316Z,101143.75
2022-08-04T09:49:52.677Z,101136.94
2022-08-04T09:55:26.984Z,101133.91
2022-08-04T10:00:41.396Z,101135.78
2022-08-04T10:06:06.801Z,101127.25
2022-08-04T10:11:56.474Z,101125.31
2022-08-04T10:17:26.308Z,101118.31
2022-08-04T10:22:37.111Z,101116.84
2022-08-04T10:27:45.416Z,101103.72
2022-08-04T10:32:52.192Z,101105.59
2022-08-04T10:38:03.719Z,101106.34
2022-08-04T10:43:27.636Z,101102.84
2022-08-04T10:48:47.224Z,101089.63
2022-08-04T10:53:45.492Z,101082.75
2022-08-04T10:58:55.459Z,101066.91
2022-08-04T11:03:56.783Z,101069.59
2022-08-04T11:08:56.029Z,101057.09
2022-08-04T11:14:13.231Z,101058.53
2022-08-04T11:19:43.030Z,101043.06
2022-08-04T11:24:46.540Z,101049.06
2022-08-04T11:29:53.518Z,101033.41
2022-08-04T11:34:53.259Z,101040.25
2022-08-04T11:40:12.042Z,101036.25
2022-08-04T11:45:13.176Z,101040.97
2022-08-04T11:50:41.462Z,101028.56
2022-08-04T11:56:07.737Z,101019.75
2022-08-04T12:01:23.221Z,101019.41
2022-08-04T12:06:33.465Z,101015.00
2022-08-04T12:11:54.565Z,101012.72
2022-08-04T12:17:01.565Z,101014.91
2022-08-04T12:22:01.779Z,101015.00
2022-08-04T12:27:04.943Z,101010.00
2022-08-04T12:32:12.644Z,101004.00
2022-08-04T12:37:22.266Z,100998.03
2022-08-04T12:42:34.376Z,100981.09
2022-08-04T12:47:31.259Z,100984.41
2022-08-04T12:52:51.584Z,100974.72
2022-08-04T12:57:45.438Z,100964.66
2022-08-04T13:02:43.881Z,100968.84
2022-08-04T13:07:44.906Z,100962.38
2022-08-04T13:13:02.563Z,100954.00
2022-08-04T13:18:00.024Z,100950.66
2022-08-04T13:23:09.084Z,100962.13
2022-08-04T13:28:06.722Z,100950.16
2022-08-04T13:33:04.616Z,100947.78
2022-08-04T13:38:02.025Z,100947.78
2022-08-04T13:42:58.766Z,100934.38
2022-08-04T13:47:59.027Z,100929.13
2022-08-04T13:53:12.236Z,100927.13
2022-08-04T13:58:22.179Z,100922.09
2022-08-04T14:03:53.913Z,100911.69
2022-08-04T14:08:55.641Z,100896.47
2022-08-04T14:13:52.294Z,100904.13
2022-08-04T14:19:01.697Z,100894.31
2022-08-04T14:24:00.618Z,100888.91
2022-08-04T14:29:27.231Z,100892.56
2022-08-04T14:34:26.842Z,100894.94
2022-08-04T14:39:38.487Z,100898.03
2022-08-04T14:44:53.957Z,100902.00
2022-08-04T14:49:55.203Z,100900.16
2022-08-04T14:54:51.750Z,100926.13
2022-08-04T14:59:59.421Z,100945.50
2022-08-04T15:04:59.939Z,100966.34
2022-08-04T15:10:16.727Z,100997.69
2022-08-04T15:15:35.221Z,101005.56
2022-08-04T15:20:31.712Z,100987.34
2022-08-04T15:25:28.340Z,100979.78
2022-08-04T15:30:24.855Z,101021.94
2022-08-04T15:35:32.006Z,101041.44
2022-08-04T15:41:04.019Z,101053.91
2022-08-04T15:46:41.109Z,101057.88
2022-08-04T15:51:28.329Z,101088.41
2022-08-04T15:56:28.850Z,101167.25
2022-08-04T16:01:29.947Z,101261.50
2022-08-04T16:06:27.484Z,101360.00
2022-08-04T16:11:31.523Z,101407.47
2022-08-04T16:16:57.380Z,101378.50
2022-08-04T16:21:56.160Z,101308.72
2022-08-04T16:26:57.488Z,101285.66
2022-08-04T16:32:06.845Z,101240.31
2022-08-04T16:37:08.947Z,101205.03
2022-08-04T16:42:30.328Z,101187.16
2022-08-04T16:47:48.666Z,101180.00
2022-08-04T16:52:46.802Z,101162.75
2022-08-04T16:57:47.231Z,101156.81
2022-08-04T17:02:47.360Z,101157.81
2022-08-04T17:08:28.009Z,101133.78
2022-08-04T17:14:03.552Z,101095.38
2022-08-04T17:18:40.481Z,101080.00
2022-08-04T17:24:14.247Z,101095.84
2022-08-04T17:29:01.555Z,101108.13
2022-08-04T17:34:00.628Z,101106.44
2022-08-04T17:39:00.079Z,101089.06
2022-08-04T17:44:03.875Z,101087.97
2022-08-04T17:49:06.946Z,101105.94
2022-08-04T17:54:04.807Z,101102.94
2022-08-04T17:59:52.273Z,101105.00
2022-08-04T18:04:39.188Z,101112.81
2022-08-04T18:10:27.463Z,101134.78
2022-08-04T18:20:45.780Z,101148.63
2022-08-04T18:31:04.115Z,101158.84
2022-08-04T18:36:33.379Z,101167.31
2022-08-04T18:41:17.331Z,101182.81
2022-08-04T18:46:15.267Z,101188.16
2022-08-04T18:51:23.651Z,101199.63
2022-08-04T18:56:29.745Z,101202.94
2022-08-04T19:01:30.001Z,101221.69
2022-08-04T19:06:45.367Z,101224.13
2022-08-04T19:11:55.301Z,101229.09
2022-08-04T19:16:52.748Z,101226.94
2022-08-04T19:21:59.705Z,101239.56
2022-08-04T19:26:58.844Z,101256.66
2022-08-04T19:31:55.351Z,101264.31
2022-08-04T19:36:52.555Z,101257.75
2022-08-04T19:42:05.662Z,101267.31
2022-08-04T19:48:17.827Z,101278.34
2022-08-04T19:57:37.991Z,101289.22
2022-08-04T20:02:37.985Z,101290.63
2022-08-04T20:07:34.653Z,101293.50
2022-08-04T20:12:31.769Z,101290.69
2022-08-04T20:18:06.852Z,101299.19
2022-08-04T20:22:52.593Z,101299.28
2022-08-04T20:28:00.258Z,101301.03
2022-08-04T20:32:58.038Z,101295.25
2022-08-04T20:43:14.467Z,101307.25
2022-08-04T20:48:12.422Z,101307.13
2022-08-04T20:53:16.753Z,101306.63
2022-08-04T20:58:13.727Z,101322.44
2022-08-04T21:03:10.438Z,101325.31
2022-08-04T21:08:07.137Z,101336.06
2022-08-04T21:13:03.741Z,101324.75
2022-08-04T21:18:04.542Z,101326.97
2022-08-04T21:23:02.169Z,101330.75
2022-08-04T21:28:04.296Z,101333.31
2022-08-04T21:33:01.243Z,101318.38
2022-08-04T21:38:01.373Z,101342.16
2022-08-04T21:42:59.334Z,101322.50
2022-08-04T21:47:59.508Z,101316.09
2022-08-04T21:52:56.051Z,101314.91
2022-08-04T21:57:54.093Z,101328.16
2022-08-04T22:02:53.546Z,101325.44
2022-08-04T22:07:51.925Z,101325.47
2022-08-04T22:12:52.087Z,101326.13
2022-08-04T22:17:48.883Z,101338.69
2022-08-04T22:22:53.577Z,101331.22
2022-08-04T22:28:07.820Z,101330.22
2022-08-04T22:33:07.489Z,101324.78
2022-08-04T22:38:07.365Z,101338.81
2022-08-04T22:43:31.833Z,101337.31
2022-08-04T22:48:32.005Z,101347.63
2022-08-04T22:53:29.040Z,101348.28
2022-08-04T22:58:28.649Z,101348.97
2022-08-04T23:03:37.792Z,101351.66
2022-08-04T23:08:36.378Z,101340.31
2022-08-04T23:13:33.080Z,101347.06
2022-08-04T23:18:29.628Z,101347.41
2022-08-04T23:23:26.209Z,101349.94
2022-08-04T23:28:24.388Z,101348.72
2022-08-04T23:33:20.956Z,101359.19
2022-08-04T23:38:31.331Z,101367.13
2022-08-04T23:43:28.726Z,101375.72
2022-08-04T23:48:45.581Z,101381.28
2022-08-04T23:54:02.526Z,101362.50
2022-08-04T23:59:00.560Z,101367.56
